Time;durP1;ratioP1;P1;durP2;ratioP2;P2;SDS_P1;SDS_P2;PMS_P1;PMS_P2;Temp;Humidity;BMP_temperature;BMP_pressure;BME280_temperature;BME280_humidity;BME280_pressure;Samples;Min_cycle;Max_cycle;Signal;HPM_P1;HPM_P2
2021/01/12 00:02:20;;;;;;;17.40;11.73;;;1.90;99.90;;;;;;5069092;28;20203;-84
2021/01/12 00:04:47;;;;;;;18.45;11.52;;;2.00;99.90;;;;;;5072740;28;20236;-82
2021/01/12 00:07:15;;;;;;;17.80;11.20;;;1.80;99.90;;;;;;5066507;28;20286;-83
2021/01/12 00:09:41;;;;;;;17.90;10.68;;;1.70;99.90;;;;;;5073526;28;20234;-83
2021/01/12 00:12:09;;;;;;;13.82;10.50;;;1.90;99.90;;;;;;5075693;28;20218;-84
2021/01/12 00:14:36;;;;;;;14.00;10.30;;;1.90;99.90;;;;;;5077425;28;20253;-84
2021/01/12 00:17:04;;;;;;;20.48;12.95;;;1.90;99.90;;;;;;5076148;28;20203;-83
2021/01/12 00:19:31;;;;;;;19.38;13.43;;;1.90;99.90;;;;;;5075612;28;20294;-81
2021/01/12 00:21:57;;;;;;;13.65;11.10;;;1.90;99.90;;;;;;5075293;28;20223;-84
2021/01/12 00:24:23;;;;;;;14.38;10.40;;;1.80;99.90;;;;;;5078813;28;20278;-83
2021/01/12 00:26:50;;;;;;;18.83;11.60;;;1.90;99.90;;;;;;5079233;28;20290;-83
2021/01/12 00:29:17;;;;;;;15.35;11.10;;;1.90;99.90;;;;;;5077036;28;20357;-84
2021/01/12 00:31:44;;;;;;;15.80;11.30;;;1.90;99.90;;;;;;5077576;28;20231;-83
2021/01/12 00:34:11;;;;;;;18.75;11.30;;;2.00;99.90;;;;;;5079403;28;20262;-82
2021/01/12 00:36:42;;;;;;;15.00;10.50;;;2.00;99.90;;;;;;5081608;28;20217;-82
2021/01/12 00:39:09;;;;;;;13.70;10.85;;;2.00;99.90;;;;;;5081532;28;20270;-82
2021/01/12 00:41:35;;;;;;;15.20;11.68;;;1.90;99.90;;;;;;5081924;28;20222;-84
2021/01/12 00:44:02;;;;;;;12.88;10.25;;;2.00;99.90;;;;;;5081970;28;20211;-83
2021/01/12 00:46:30;;;;;;;17.23;10.75;;;2.10;99.90;;;;;;5081527;28;20187;-83
2021/01/12 00:48:56;;;;;;;15.55;11.30;;;2.00;99.90;;;;;;5081356;28;20238;-81
2021/01/12 00:51:32;;;;;;;18.02;12.20;;;2.00;99.90;;;;;;5080692;28;20210;-82
2021/01/12 00:53:58;;;;;;;14.02;10.15;;;1.90;99.90;;;;;;5078818;28;20250;-82
2021/01/12 00:56:25;;;;;;;16.52;11.05;;;1.90;99.90;;;;;;5080564;28;20655;-81
2021/01/12 00:58:51;;;;;;;17.48;11.13;;;1.90;99.90;;;;;;5077437;28;20238;-81
2021/01/12 01:01:17;;;;;;;15.77;11.23;;;2.00;99.90;;;;;;5067211;28;20211;-81
2021/01/12 01:03:44;;;;;;;17.17;12.43;;;2.10;99.90;;;;;;5065105;28;20228;-81
2021/01/12 01:06:11;;;;;;;19.50;11.40;;;2.10;99.90;;;;;;5060510;28;20261;-81
2021/01/12 01:08:38;;;;;;;15.98;10.65;;;2.00;99.90;;;;;;5059224;28;20225;-81
2021/01/12 01:11:04;;;;;;;14.38;10.68;;;2.00;99.90;;;;;;5058858;28;20209;-81
2021/01/12 01:13:31;;;;;;;19.92;13.35;;;2.00;99.90;;;;;;5058616;28;20271;-81
2021/01/12 01:15:57;;;;;;;15.68;11.57;;;2.00;99.90;;;;;;5066073;28;20297;-81
2021/01/12 01:18:24;;;;;;;18.92;12.10;;;2.10;99.90;;;;;;5066640;28;20229;-80
2021/01/12 01:20:51;;;;;;;17.27;11.38;;;1.90;99.90;;;;;;5062297;28;20230;-82
2021/01/12 01:23:17;;;;;;;16.85;11.70;;;1.90;99.90;;;;;;5061272;28;20679;-82
2021/01/12 01:25:43;;;;;;;14.60;12.27;;;1.90;99.90;;;;;;5059915;28;20276;-82
2021/01/12 01:28:10;;;;;;;15.60;11.52;;;2.00;99.90;;;;;;5061732;28;20205;-82
2021/01/12 01:30:36;;;;;;;19.15;11.90;;;2.10;99.90;;;;;;5066938;28;20590;-82
2021/01/12 01:33:03;;;;;;;17.48;12.80;;;2.10;99.90;;;;;;5060629;28;20202;-83
2021/01/12 01:35:31;;;;;;;16.23;12.52;;;2.10;99.90;;;;;;5059523;28;20203;-82
2021/01/12 01:37:58;;;;;;;17.63;11.95;;;2.10;99.90;;;;;;5058955;28;20240;-82
2021/01/12 01:40:25;;;;;;;14.80;11.07;;;2.10;99.90;;;;;;5060439;28;20231;-84
2021/01/12 01:42:51;;;;;;;17.33;12.60;;;2.20;99.90;;;;;;5080265;28;20223;-81
2021/01/12 01:45:18;;;;;;;18.50;12.68;;;2.20;99.90;;;;;;5060404;28;20203;-82
2021/01/12 01:47:45;;;;;;;20.23;13.32;;;2.20;99.90;;;;;;5059348;28;20209;-82
2021/01/12 01:50:14;;;;;;;16.50;12.30;;;2.30;99.90;;;;;;5059156;28;20226;-82
2021/01/12 01:52:43;;;;;;;20.63;13.77;;;2.10;99.90;;;;;;5058650;28;20230;-82
2021/01/12 01:55:13;;;;;;;19.20;12.13;;;2.10;99.90;;;;;;5058133;28;20583;-83
2021/01/12 01:57:39;;;;;;;18.55;13.07;;;1.90;99.90;;;;;;5058654;28;20237;-83
2021/01/12 02:00:07;;;;;;;19.35;13.35;;;1.90;99.90;;;;;;5058942;28;20219;-83
2021/01/12 02:02:38;;;;;;;21.60;14.02;;;1.80;99.90;;;;;;5058251;28;20199;-83
2021/01/12 02:05:11;;;;;;;22.15;15.15;;;1.70;99.90;;;;;;5058372;28;20187;-82
2021/01/12 02:07:42;;;;;;;26.58;16.83;;;1.40;99.90;;;;;;5057952;28;20191;-82
2021/01/12 02:10:12;;;;;;;23.25;16.00;;;1.40;99.90;;;;;;5058125;28;20788;-84
2021/01/12 02:12:47;;;;;;;23.25;14.13;;;1.40;99.90;;;;;;5058657;28;20586;-83
2021/01/12 02:15:18;;;;;;;22.30;14.77;;;1.30;99.90;;;;;;5057341;28;20183;-82
2021/01/12 02:17:45;;;;;;;20.88;15.90;;;1.30;99.90;;;;;;5058328;28;20566;-83
2021/01/12 02:20:13;;;;;;;25.52;16.23;;;1.20;99.90;;;;;;5058092;28;20308;-83
2021/01/12 02:22:46;;;;;;;24.50;16.70;;;1.20;99.90;;;;;;5057494;28;20260;-82
2021/01/12 02:25:16;;;;;;;25.10;17.02;;;1.10;99.90;;;;;;5057742;28;20190;-84
2021/01/12 02:27:43;;;;;;;28.55;16.90;;;1.10;99.90;;;;;;5064677;28;20248;-82
2021/01/12 02:30:10;;;;;;;24.38;15.18;;;1.10;99.90;;;;;;5061839;28;20574;-83
2021/01/12 02:32:37;;;;;;;27.27;18.00;;;1.10;99.90;;;;;;5057549;28;20218;-83
2021/01/12 02:35:05;;;;;;;26.40;17.95;;;1.10;99.90;;;;;;5056486;28;20214;-83
2021/01/12 02:37:32;;;;;;;30.60;19.30;;;1.00;99.90;;;;;;5056278;28;20583;-82
2021/01/12 02:39:59;;;;;;;29.13;18.70;;;1.00;99.90;;;;;;5056747;28;20226;-83
2021/01/12 02:42:27;;;;;;;27.30;16.98;;;1.10;99.90;;;;;;5056730;28;20199;-83
2021/01/12 02:44:53;;;;;;;31.40;20.50;;;1.10;99.90;;;;;;5056359;28;20199;-83
2021/01/12 02:47:20;;;;;;;30.95;18.48;;;1.00;99.90;;;;;;5056235;28;20203;-83
2021/01/12 02:49:46;;;;;;;25.73;18.02;;;1.00;99.90;;;;;;5056491;28;20225;-82
2021/01/12 02:52:13;;;;;;;30.33;19.20;;;1.00;99.90;;;;;;5055957;28;20207;-82
2021/01/12 02:54:40;;;;;;;28.08;18.77;;;1.00;99.90;;;;;;5056595;28;20203;-83
2021/01/12 02:57:07;;;;;;;32.08;20.30;;;1.00;99.90;;;;;;5057138;28;20230;-82
2021/01/12 02:59:34;;;;;;;27.52;18.38;;;1.00;99.90;;;;;;5055634;28;20226;-83
2021/01/12 03:02:00;;;;;;;29.85;19.38;;;1.00;99.90;;;;;;5056386;28;20203;-82
2021/01/12 03:04:27;;;;;;;31.42;20.05;;;1.00;99.90;;;;;;5056339;28;20199;-82
2021/01/12 03:06:53;;;;;;;34.85;21.00;;;0.90;99.90;;;;;;5056393;28;20630;-82
2021/01/12 03:09:19;;;;;;;32.95;18.83;;;0.90;99.90;;;;;;5055929;28;20222;-82
2021/01/12 03:11:50;;;;;;;30.75;20.25;;;0.90;99.90;;;;;;5056341;28;20203;-82
2021/01/12 03:14:17;;;;;;;31.67;20.10;;;1.00;99.90;;;;;;5056099;28;20191;-82
2021/01/12 03:16:44;;;;;;;33.33;18.90;;;0.90;99.90;;;;;;5056119;28;20278;-82
2021/01/12 03:19:11;;;;;;;35.97;20.63;;;0.90;99.90;;;;;;5055876;28;20226;-82
2021/01/12 03:21:37;;;;;;;36.00;22.95;;;0.90;99.90;;;;;;5055411;28;20683;-82
2021/01/12 03:24:05;;;;;;;34.80;23.30;;;0.90;99.90;;;;;;5055344;28;20206;-82
2021/01/12 03:26:32;;;;;;;29.02;19.25;;;1.00;99.90;;;;;;5055291;28;20213;-83
2021/01/12 03:28:58;;;;;;;30.10;20.40;;;0.90;99.90;;;;;;5055643;28;20222;-82
2021/01/12 03:31:24;;;;;;;32.53;20.58;;;0.90;99.90;;;;;;5055206;28;20207;-81
2021/01/12 03:33:52;;;;;;;32.13;22.13;;;1.10;99.90;;;;;;5055817;28;20214;-83
2021/01/12 03:36:18;;;;;;;30.33;21.13;;;1.00;99.90;;;;;;5054879;28;20206;-82
2021/01/12 03:38:45;;;;;;;31.15;22.17;;;1.00;99.90;;;;;;5055212;28;20218;-82
2021/01/12 03:41:11;;;;;;;37.88;21.52;;;1.00;99.90;;;;;;5055993;28;20194;-82
2021/01/12 03:43:37;;;;;;;37.38;22.35;;;1.00;99.90;;;;;;5056141;28;20203;-83
2021/01/12 03:46:04;;;;;;;31.27;21.20;;;1.00;99.90;;;;;;5055525;28;20256;-82
2021/01/12 03:48:30;;;;;;;35.88;21.42;;;1.10;99.90;;;;;;5057037;28;20222;-82
2021/01/12 03:50:57;;;;;;;32.08;21.15;;;1.10;99.90;;;;;;5057794;28;20217;-82
2021/01/12 03:53:23;;;;;;;39.25;24.30;;;1.20;99.90;;;;;;5054984;28;20667;-81
2021/01/12 03:55:50;;;;;;;34.97;24.10;;;1.10;99.90;;;;;;5056315;28;20199;-83
2021/01/12 03:58:16;;;;;;;33.42;21.70;;;1.20;99.90;;;;;;5056116;28;20432;-81
2021/01/12 04:00:42;;;;;;;31.77;22.60;;;1.20;99.90;;;;;;5057227;28;20271;-82
2021/01/12 04:03:09;;;;;;;37.40;24.35;;;1.20;99.90;;;;;;5056717;28;20210;-82
2021/01/12 04:05:35;;;;;;;33.55;23.10;;;1.20;99.90;;;;;;5056360;28;20679;-81
2021/01/12 04:08:03;;;;;;;37.45;25.55;;;1.30;99.90;;;;;;5055536;28;20840;-82
2021/01/12 04:10:31;;;;;;;35.15;25.27;;;1.30;99.90;;;;;;5056616;28;20297;-82
2021/01/12 04:12:59;;;;;;;36.05;23.45;;;1.30;99.90;;;;;;5056718;28;20746;-82
2021/01/12 04:15:25;;;;;;;35.63;22.83;;;1.40;99.90;;;;;;5055043;28;20207;-81
2021/01/12 04:17:52;;;;;;;36.55;22.67;;;1.40;99.90;;;;;;5055730;28;20241;-82
2021/01/12 04:20:18;;;;;;;35.10;23.50;;;1.30;99.90;;;;;;5055690;28;20223;-82
2021/01/12 04:22:45;;;;;;;33.78;21.50;;;1.40;99.90;;;;;;5056880;28;20225;-82
2021/01/12 04:25:13;;;;;;;33.45;23.70;;;1.40;99.90;;;;;;5057608;28;20206;-82
2021/01/12 04:27:39;;;;;;;35.88;24.30;;;1.40;99.90;;;;;;5058259;28;20855;-82
2021/01/12 04:30:07;;;;;;;33.67;23.50;;;1.40;99.90;;;;;;5062898;28;20233;-82
2021/01/12 04:32:33;;;;;;;36.38;25.00;;;1.50;99.90;;;;;;5063652;28;20206;-82
2021/01/12 04:34:59;;;;;;;33.55;21.77;;;1.40;99.90;;;;;;5058072;28;20245;-83
2021/01/12 04:37:26;;;;;;;36.38;23.35;;;1.40;99.90;;;;;;5057199;28;20256;-83
2021/01/12 04:39:52;;;;;;;29.80;22.15;;;1.40;99.90;;;;;;5055679;28;20231;-82
2021/01/12 04:42:19;;;;;;;35.40;22.80;;;1.50;99.90;;;;;;5056197;28;20256;-82
2021/01/12 04:44:46;;;;;;;34.95;24.02;;;1.50;99.90;;;;;;5056147;28;20270;-82
2021/01/12 04:47:21;;;;;;;40.40;24.27;;;1.40;99.90;;;;;;5061560;28;20206;-82
2021/01/12 04:49:47;;;;;;;32.22;23.13;;;1.50;99.90;;;;;;5065067;28;20750;-82
2021/01/12 04:52:13;;;;;;;35.58;24.70;;;1.50;99.90;;;;;;5059978;28;20530;-82
2021/01/12 04:54:40;;;;;;;39.10;25.83;;;1.50;99.90;;;;;;5061795;28;20526;-82
2021/01/12 04:57:06;;;;;;;39.40;24.60;;;1.50;99.90;;;;;;5078751;28;20196;-81
2021/01/12 04:59:35;;;;;;;40.30;25.73;;;1.50;99.90;;;;;;5075756;28;20337;-82
2021/01/12 05:02:02;;;;;;;32.33;22.95;;;1.40;99.90;;;;;;5063839;28;20240;-81
2021/01/12 05:04:28;;;;;;;37.20;26.63;;;1.40;99.90;;;;;;5062695;28;20198;-81
2021/01/12 05:06:56;;;;;;;36.05;24.83;;;1.40;99.90;;;;;;5061371;28;20213;-81
2021/01/12 05:09:23;;;;;;;34.10;23.92;;;1.40;99.90;;;;;;5071547;28;20353;-81
2021/01/12 05:11:53;;;;;;;35.17;24.17;;;1.50;99.90;;;;;;5079891;28;20226;-81
2021/01/12 05:14:23;;;;;;;40.17;23.85;;;1.50;99.90;;;;;;5069395;28;20192;-81
2021/01/12 05:16:51;;;;;;;39.38;24.23;;;1.60;99.90;;;;;;5059309;28;20658;-82
2021/01/12 05:19:23;;;;;;;33.75;26.73;;;1.70;99.90;;;;;;5057749;28;20462;-81
2021/01/12 05:21:50;;;;;;;35.30;26.23;;;1.70;99.90;;;;;;5058273;28;20457;-82
2021/01/12 05:24:19;;;;;;;36.13;24.90;;;1.60;99.90;;;;;;5058456;28;20675;-81
2021/01/12 05:26:45;;;;;;;36.95;24.20;;;1.60;99.90;;;;;;5063451;28;20432;-81
2021/01/12 05:29:12;;;;;;;33.72;22.85;;;1.50;99.90;;;;;;5066549;28;20229;-81
2021/01/12 05:31:39;;;;;;;30.90;24.35;;;1.60;99.90;;;;;;5066002;28;20294;-82
2021/01/12 05:34:08;;;;;;;34.20;25.58;;;1.60;99.90;;;;;;5061746;28;20587;-81
2021/01/12 05:36:47;;;;;;;33.65;22.92;;;1.60;99.90;;;;;;5058560;28;20214;-82
2021/01/12 05:39:17;;;;;;;33.97;25.77;;;1.50;99.90;;;;;;5057034;28;20944;-82
2021/01/12 05:41:45;;;;;;;32.13;24.02;;;1.60;99.90;;;;;;5060269;28;20203;-82
2021/01/12 05:44:14;;;;;;;34.80;26.17;;;1.60;99.90;;;;;;5060362;28;20211;-81
2021/01/12 05:46:45;;;;;;;29.25;21.25;;;1.70;99.90;;;;;;5060095;28;20286;-81
2021/01/12 05:49:12;;;;;;;31.42;23.50;;;1.70;99.90;;;;;;5059645;28;20215;-82
2021/01/12 05:51:44;;;;;;;36.47;22.73;;;1.60;99.90;;;;;;5060826;28;20213;-82
2021/01/12 05:54:30;;;;;;;33.50;21.40;;;1.60;99.90;;;;;;5060412;28;20557;-81
2021/01/12 05:56:58;;;;;;;32.58;22.75;;;1.50;99.90;;;;;;5060257;28;20240;-82
2021/01/12 05:59:27;;;;;;;33.85;24.23;;;1.50;99.90;;;;;;5059343;28;20245;-82
2021/01/12 06:01:54;;;;;;;32.97;24.52;;;1.50;99.90;;;;;;5060766;28;20293;-82
2021/01/12 06:04:22;;;;;;;31.67;21.92;;;1.70;99.90;;;;;;5060183;28;20271;-82
2021/01/12 06:06:50;;;;;;;32.72;22.08;;;1.60;99.90;;;;;;5060070;28;20297;-81
2021/01/12 06:09:18;;;;;;;31.27;22.73;;;1.60;99.90;;;;;;5060172;28;20738;-82
2021/01/12 06:11:46;;;;;;;32.25;22.80;;;1.60;99.90;;;;;;5061586;28;20336;-83
2021/01/12 06:14:14;;;;;;;38.72;25.27;;;1.60;99.90;;;;;;5060352;28;20293;-83
2021/01/12 06:16:42;;;;;;;32.88;23.75;;;1.60;99.90;;;;;;5061505;28;20206;-82
2021/01/12 06:19:10;;;;;;;34.00;23.27;;;1.60;99.90;;;;;;5060136;28;20223;-81
2021/01/12 06:22:24;;;;;;;33.05;23.15;;;1.70;99.90;;;;;;5060190;28;20206;-81
2021/01/12 06:25:07;;;;;;;34.70;24.85;;;1.50;99.90;;;;;;5059837;28;20187;-81
2021/01/12 06:27:35;;;;;;;37.20;23.77;;;1.50;99.90;;;;;;5060230;28;20201;-81
2021/01/12 06:30:04;;;;;;;34.30;23.50;;;1.60;99.90;;;;;;5059184;28;20318;-82
2021/01/12 06:32:32;;;;;;;32.55;22.17;;;1.60;99.90;;;;;;5060572;28;20207;-82
2021/01/12 06:35:00;;;;;;;36.13;23.50;;;1.50;99.90;;;;;;5059268;28;20213;-82
2021/01/12 06:37:28;;;;;;;37.08;25.20;;;1.60;99.90;;;;;;5060035;28;20225;-81
2021/01/12 06:39:59;;;;;;;34.55;24.70;;;1.60;99.90;;;;;;5058544;28;20227;-83
2021/01/12 06:42:26;;;;;;;36.20;25.27;;;1.70;99.90;;;;;;5059144;28;20194;-82
2021/01/12 06:44:54;;;;;;;32.00;23.02;;;1.60;99.90;;;;;;5059229;28;20255;-81
2021/01/12 06:47:24;;;;;;;32.65;22.75;;;1.60;99.90;;;;;;5060790;28;20210;-81
2021/01/12 06:50:01;;;;;;;30.92;22.15;;;1.60;99.90;;;;;;5059594;28;20711;-81
2021/01/12 06:52:28;;;;;;;34.60;24.95;;;1.70;99.90;;;;;;5062323;28;20187;-83
2021/01/12 06:54:54;;;;;;;34.67;25.48;;;1.60;99.90;;;;;;5060378;28;20248;-82
2021/01/12 06:57:23;;;;;;;35.15;24.05;;;1.70;99.90;;;;;;5059210;28;20209;-82
2021/01/12 06:59:53;;;;;;;32.08;22.92;;;1.80;99.90;;;;;;5059796;28;20234;-81
2021/01/12 07:02:21;;;;;;;33.17;23.33;;;1.80;99.90;;;;;;5059266;28;20191;-83
2021/01/12 07:04:54;;;;;;;33.88;22.60;;;1.80;99.90;;;;;;5058849;28;20231;-83
2021/01/12 07:07:23;;;;;;;35.58;23.13;;;1.80;99.90;;;;;;5060310;28;20207;-82
2021/01/12 07:09:53;;;;;;;32.55;22.50;;;1.80;99.90;;;;;;5058454;28;20594;-83
2021/01/12 07:12:21;;;;;;;32.13;23.02;;;1.70;99.90;;;;;;5057329;28;20191;-83
2021/01/12 07:14:50;;;;;;;34.22;25.45;;;1.80;99.90;;;;;;5058402;28;20552;-82
2021/01/12 07:17:26;;;;;;;36.58;24.80;;;1.80;99.90;;;;;;5060109;28;20206;-83
2021/01/12 07:20:11;;;;;;;31.00;21.38;;;1.80;99.90;;;;;;5058728;28;20233;-82
2021/01/12 07:22:39;;;;;;;29.85;21.50;;;1.80;99.90;;;;;;5058409;28;20237;-82
2021/01/12 07:25:08;;;;;;;32.78;24.20;;;1.80;99.90;;;;;;5058731;28;20203;-82
2021/01/12 07:27:35;;;;;;;30.15;22.85;;;1.90;99.90;;;;;;5062812;28;20207;-82
2021/01/12 07:30:08;;;;;;;29.70;21.35;;;1.90;99.90;;;;;;5067128;28;20222;-82
2021/01/12 07:32:37;;;;;;;29.85;19.83;;;1.80;99.90;;;;;;5060162;28;20603;-82
2021/01/12 07:35:09;;;;;;;27.65;20.00;;;1.80;99.90;;;;;;5059414;28;20206;-83
2021/01/12 07:37:38;;;;;;;31.40;21.00;;;1.80;99.90;;;;;;5059072;28;20202;-82
2021/01/12 07:40:08;;;;;;;29.13;21.40;;;1.80;99.90;;;;;;5058696;28;20248;-82
2021/01/12 07:42:45;;;;;;;24.98;18.85;;;1.90;99.90;;;;;;5059573;28;20191;-84
2021/01/12 07:45:12;;;;;;;24.75;19.50;;;2.00;99.90;;;;;;5060282;28;20254;-82
2021/01/12 07:47:38;;;;;;;29.52;21.05;;;1.90;99.90;;;;;;5068637;28;20206;-82
2021/01/12 07:50:06;;;;;;;22.42;17.42;;;2.00;99.90;;;;;;5066875;28;20225;-82
2021/01/12 07:52:33;;;;;;;24.25;17.33;;;1.90;99.90;;;;;;5061783;28;20211;-82
2021/01/12 07:54:59;;;;;;;25.77;18.35;;;1.90;99.90;;;;;;5061266;28;20199;-82
2021/01/12 07:57:27;;;;;;;25.25;18.67;;;2.00;99.90;;;;;;5060047;28;20285;-82
2021/01/12 07:59:54;;;;;;;25.00;16.48;;;1.90;99.90;;;;;;5057826;28;20223;-82
2021/01/12 08:02:24;;;;;;;24.88;16.60;;;2.00;99.90;;;;;;5058324;28;20221;-83
2021/01/12 08:04:50;;;;;;;20.98;16.73;;;1.90;99.90;;;;;;5058569;28;20202;-83
2021/01/12 08:07:23;;;;;;;21.58;16.63;;;2.00;99.90;;;;;;5062494;28;20207;-82
2021/01/12 08:09:54;;;;;;;20.73;14.38;;;2.00;99.90;;;;;;5068500;28;20266;-82
2021/01/12 08:12:21;;;;;;;18.48;15.40;;;2.00;99.90;;;;;;5076732;28;20183;-82
2021/01/12 08:14:48;;;;;;;19.67;15.00;;;1.90;99.90;;;;;;5071929;28;20199;-81
2021/01/12 08:17:20;;;;;;;20.30;15.40;;;1.80;99.90;;;;;;5059230;28;20597;-82
2021/01/12 08:19:47;;;;;;;18.25;14.45;;;1.90;99.90;;;;;;5059082;28;20233;-82
2021/01/12 08:22:16;;;;;;;21.58;16.08;;;1.90;99.90;;;;;;5058689;28;20202;-83
2021/01/12 08:24:44;;;;;;;21.73;15.05;;;1.90;99.90;;;;;;5062450;28;20234;-83
2021/01/12 08:27:10;;;;;;;19.17;14.45;;;1.90;99.90;;;;;;5064226;28;20629;-83
2021/01/12 08:29:36;;;;;;;17.48;13.70;;;2.00;99.90;;;;;;5075580;28;20206;-82
2021/01/12 08:32:06;;;;;;;17.92;12.45;;;2.00;99.90;;;;;;5080209;28;20270;-82
2021/01/12 08:34:42;;;;;;;19.15;12.95;;;2.00;99.90;;;;;;5066049;28;20211;-83
2021/01/12 08:37:09;;;;;;;16.73;13.00;;;2.00;99.90;;;;;;5071503;28;20187;-82
2021/01/12 08:39:37;;;;;;;17.35;13.38;;;2.00;99.90;;;;;;5063344;28;20231;-82
2021/01/12 08:42:07;;;;;;;17.00;12.88;;;2.10;99.90;;;;;;5062538;28;20203;-83
2021/01/12 08:44:37;;;;;;;20.17;13.95;;;2.00;99.90;;;;;;5065639;28;20199;-83
2021/01/12 08:47:07;;;;;;;14.05;12.65;;;1.90;99.90;;;;;;5061601;28;20377;-82
2021/01/12 08:49:35;;;;;;;14.93;12.52;;;1.90;99.90;;;;;;5059712;28;20226;-83
2021/01/12 08:52:03;;;;;;;13.57;10.55;;;2.00;99.90;;;;;;5060024;28;20286;-83
2021/01/12 08:54:30;;;;;;;13.70;12.07;;;2.00;99.90;;;;;;5060739;28;20205;-82
2021/01/12 08:56:57;;;;;;;14.70;11.60;;;2.00;99.90;;;;;;5073176;28;20293;-82
2021/01/12 08:59:28;;;;;;;16.50;12.55;;;2.00;99.90;;;;;;5077430;28;20227;-82
2021/01/12 09:01:56;;;;;;;13.48;11.13;;;2.00;99.90;;;;;;5078839;28;20190;-82
2021/01/12 09:04:24;;;;;;;15.02;10.82;;;2.10;99.90;;;;;;5078450;28;20206;-81
2021/01/12 09:07:04;;;;;;;11.10;9.95;;;2.10;99.90;;;;;;5077217;28;20223;-82
2021/01/12 09:09:31;;;;;;;11.30;9.85;;;2.10;99.90;;;;;;5077708;28;20278;-82
2021/01/12 09:11:59;;;;;;;12.60;9.75;;;2.10;99.90;;;;;;5078099;28;20241;-82
2021/01/12 09:14:27;;;;;;;14.57;11.38;;;2.00;99.90;;;;;;5077706;28;20206;-82
2021/01/12 09:16:59;;;;;;;11.32;9.77;;;2.10;99.90;;;;;;5077483;28;20226;-83
2021/01/12 09:19:36;;;;;;;13.10;9.77;;;2.20;99.90;;;;;;5078286;28;20242;-83
2021/01/12 09:22:15;;;;;;;12.15;10.07;;;2.10;99.90;;;;;;5076897;28;20251;-82
2021/01/12 09:24:47;;;;;;;10.90;9.32;;;2.10;99.90;;;;;;5075129;28;20187;-82
2021/01/12 09:27:18;;;;;;;11.25;9.32;;;2.20;99.90;;;;;;5073894;28;20602;-82
2021/01/12 09:29:45;;;;;;;11.38;9.38;;;2.30;99.90;;;;;;5072690;28;20302;-82
2021/01/12 09:32:12;;;;;;;10.88;9.75;;;2.30;99.90;;;;;;5062570;28;20210;-82
2021/01/12 09:34:42;;;;;;;10.50;8.93;;;2.30;99.90;;;;;;5063167;28;20225;-82
2021/01/12 09:37:17;;;;;;;17.52;14.02;;;2.20;99.90;;;;;;5062225;28;20256;-83
2021/01/12 09:39:45;;;;;;;8.88;7.97;;;2.20;99.90;;;;;;5060772;28;20222;-81
2021/01/12 09:42:12;;;;;;;10.20;9.18;;;2.20;99.90;;;;;;5064531;28;20199;-82
2021/01/12 09:44:38;;;;;;;9.85;8.63;;;2.30;99.90;;;;;;5061413;28;20203;-82
2021/01/12 09:47:05;;;;;;;11.88;9.40;;;2.20;99.90;;;;;;5062172;28;20290;-82
2021/01/12 09:49:31;;;;;;;11.50;8.10;;;2.30;99.90;;;;;;5061233;28;20221;-81
2021/01/12 09:51:58;;;;;;;9.27;8.20;;;2.30;99.90;;;;;;5060005;28;20203;-81
2021/01/12 09:54:24;;;;;;;9.18;8.18;;;2.20;99.90;;;;;;5063213;28;20213;-82
2021/01/12 09:56:51;;;;;;;9.55;8.73;;;2.30;99.90;;;;;;5064677;28;20645;-82
2021/01/12 09:59:17;;;;;;;11.30;8.95;;;2.40;99.90;;;;;;5075458;28;20222;-82
2021/01/12 10:01:43;;;;;;;8.55;7.65;;;2.40;99.90;;;;;;5077999;28;20187;-82
2021/01/12 10:04:09;;;;;;;8.63;7.72;;;2.30;99.90;;;;;;5077635;28;20291;-82
2021/01/12 10:06:36;;;;;;;11.57;8.75;;;2.30;99.90;;;;;;5078158;28;20231;-82
2021/01/12 10:09:03;;;;;;;10.35;8.05;;;2.20;99.90;;;;;;5077193;28;20214;-82
2021/01/12 10:11:29;;;;;;;11.32;7.80;;;2.20;99.90;;;;;;5077203;28;20231;-82
2021/01/12 10:13:56;;;;;;;8.50;7.70;;;2.30;99.90;;;;;;5075869;28;20230;-81
2021/01/12 10:16:23;;;;;;;8.38;7.53;;;2.30;99.90;;;;;;5075239;28;20270;-83
2021/01/12 10:18:49;;;;;;;7.55;6.95;;;2.40;99.90;;;;;;5073547;28;20227;-82
2021/01/12 10:21:17;;;;;;;9.13;7.90;;;2.40;99.90;;;;;;5072594;28;20222;-82
2021/01/12 10:23:43;;;;;;;7.93;6.95;;;2.40;99.90;;;;;;5071628;28;20202;-82
2021/01/12 10:26:14;;;;;;;8.43;7.63;;;2.40;99.90;;;;;;5072414;28;20207;-83
2021/01/12 10:28:41;;;;;;;8.52;7.72;;;2.40;99.90;;;;;;5069428;28;20266;-83
2021/01/12 10:31:14;;;;;;;7.43;6.70;;;2.40;99.90;;;;;;5069282;28;20203;-83
2021/01/12 10:33:41;;;;;;;10.00;7.90;;;2.30;99.90;;;;;;5071595;28;20218;-83
2021/01/12 10:36:07;;;;;;;8.55;7.65;;;2.30;99.90;;;;;;5072991;28;20290;-83
2021/01/12 10:38:34;;;;;;;9.80;8.80;;;2.30;99.90;;;;;;5073382;28;20228;-83
2021/01/12 10:41:00;;;;;;;9.25;7.97;;;2.30;99.90;;;;;;5073225;28;20278;-83
2021/01/12 10:43:27;;;;;;;9.13;7.95;;;2.30;99.90;;;;;;5074942;28;20664;-83
2021/01/12 10:45:54;;;;;;;8.68;7.78;;;2.30;99.90;;;;;;5075017;28;20191;-84
2021/01/12 10:48:20;;;;;;;8.30;7.20;;;2.30;99.90;;;;;;5074049;28;20227;-84
2021/01/12 10:50:47;;;;;;;9.23;7.93;;;2.20;99.90;;;;;;5075210;28;20279;-84
2021/01/12 10:53:13;;;;;;;10.15;7.75;;;2.20;99.90;;;;;;5074259;28;20270;-83
2021/01/12 10:55:39;;;;;;;10.57;7.80;;;2.20;99.90;;;;;;5073181;28;20203;-81
2021/01/12 10:58:06;;;;;;;8.55;7.45;;;2.40;99.90;;;;;;5073509;28;20214;-84
2021/01/12 11:00:33;;;;;;;9.65;8.20;;;2.40;99.90;;;;;;5065808;28;20269;-84
2021/01/12 11:03:00;;;;;;;8.80;7.90;;;2.40;99.90;;;;;;5064147;28;20203;-84
2021/01/12 11:05:26;;;;;;;8.98;7.65;;;2.30;99.90;;;;;;5062880;28;20226;-84
2021/01/12 11:07:53;;;;;;;8.10;7.30;;;2.30;99.90;;;;;;5063709;28;20207;-84
2021/01/12 11:10:19;;;;;;;8.70;7.57;;;2.40;99.90;;;;;;5059655;28;20227;-84
2021/01/12 11:12:47;;;;;;;9.60;8.60;;;2.50;99.90;;;;;;5059802;28;20210;-85
2021/01/12 11:15:14;;;;;;;8.52;7.75;;;2.50;99.90;;;;;;5058583;28;20241;-84
2021/01/12 11:17:42;;;;;;;9.52;8.52;;;2.50;99.90;;;;;;5058553;28;20274;-85
2021/01/12 11:20:09;;;;;;;11.13;8.68;;;2.40;99.90;;;;;;5058048;28;20231;-83
2021/01/12 11:22:36;;;;;;;9.60;7.97;;;2.50;99.90;;;;;;5059496;28;20206;-84
2021/01/12 11:25:05;;;;;;;9.45;8.32;;;2.60;99.90;;;;;;5059601;28;20624;-84
2021/01/12 11:27:32;;;;;;;9.30;8.40;;;2.60;99.90;;;;;;5059337;28;20294;-84
2021/01/12 11:29:59;;;;;;;9.98;8.50;;;2.60;99.90;;;;;;5060298;28;20310;-84
2021/01/12 11:32:26;;;;;;;9.90;8.75;;;2.60;99.90;;;;;;5065490;28;20214;-85
2021/01/12 11:34:53;;;;;;;10.75;9.02;;;2.60;99.90;;;;;;5066184;28;20230;-84
2021/01/12 11:37:19;;;;;;;10.38;9.13;;;2.60;99.90;;;;;;5063516;28;20297;-85
2021/01/12 11:39:46;;;;;;;9.77;8.50;;;2.60;99.90;;;;;;5085791;22;20221;-83
2021/01/12 11:42:14;;;;;;;10.88;8.25;;;2.60;99.90;;;;;;5102952;28;20215;-83
2021/01/12 11:44:44;;;;;;;11.60;9.68;;;2.70;99.90;;;;;;5104152;28;20623;-83
2021/01/12 11:47:13;;;;;;;9.32;8.43;;;2.60;99.90;;;;;;5117119;28;20205;-82
2021/01/12 11:49:39;;;;;;;10.27;8.93;;;2.70;99.90;;;;;;5110474;28;20218;-83
2021/01/12 11:52:08;;;;;;;9.70;8.65;;;2.70;99.90;;;;;;5105340;28;20205;-82
2021/01/12 11:54:35;;;;;;;9.80;8.90;;;2.80;99.90;;;;;;5103728;28;20729;-83
2021/01/12 11:57:03;;;;;;;10.60;8.85;;;2.80;99.90;;;;;;5103097;28;20265;-83
2021/01/12 11:59:31;;;;;;;12.93;10.48;;;2.80;99.90;;;;;;5106521;28;20331;-83
2021/01/12 12:01:58;;;;;;;10.45;8.95;;;2.80;99.90;;;;;;5107451;28;20209;-83
2021/01/12 12:04:25;;;;;;;10.15;9.15;;;2.80;99.90;;;;;;5108642;28;20247;-83
2021/01/12 12:06:53;;;;;;;11.00;9.82;;;2.90;99.90;;;;;;5108236;28;20215;-83
2021/01/12 12:09:21;;;;;;;11.63;10.43;;;2.90;99.90;;;;;;5107316;28;20198;-83
2021/01/12 12:11:48;;;;;;;10.32;8.80;;;3.10;99.90;;;;;;5108318;28;20201;-83
2021/01/12 12:14:15;;;;;;;10.60;8.52;;;3.10;99.90;;;;;;5107439;28;20555;-83
2021/01/12 12:16:43;;;;;;;10.82;8.63;;;3.00;99.90;;;;;;5106877;28;20212;-83
2021/01/12 12:19:10;;;;;;;10.02;8.38;;;3.00;99.90;;;;;;5105315;28;20789;-83
2021/01/12 12:21:42;;;;;;;9.77;8.25;;;3.10;99.90;;;;;;5105433;28;20227;-84
2021/01/12 12:24:09;;;;;;;11.75;9.82;;;3.10;99.90;;;;;;5105510;28;20194;-84
2021/01/12 12:26:43;;;;;;;11.60;8.80;;;3.10;99.90;;;;;;5106122;28;20236;-83
2021/01/12 12:29:10;;;;;;;13.88;9.70;;;3.20;99.90;;;;;;5106465;28;20197;-83
2021/01/12 12:31:36;;;;;;;12.13;9.15;;;3.30;99.90;;;;;;5105147;28;20236;-84
2021/01/12 12:34:07;;;;;;;12.65;9.77;;;3.30;99.90;;;;;;5104286;28;20638;-84
2021/01/12 12:36:36;;;;;;;8.70;7.80;;;3.20;99.90;;;;;;5104110;28;20281;-84
2021/01/12 12:39:05;;;;;;;10.25;8.10;;;3.20;99.90;;;;;;5103256;28;20316;-84
2021/01/12 12:41:50;;;;;;;11.15;8.73;;;3.30;99.90;;;;;;5104187;28;20650;-85
2021/01/12 12:44:21;;;;;;;9.43;8.45;;;3.30;99.90;;;;;;5097623;28;20201;-84
2021/01/12 12:47:09;;;;;;;11.45;9.30;;;3.20;99.90;;;;;;5105293;28;20202;-84